createdAt,value
2023-02-12T00:00:39.612Z,43.95
2023-02-12T00:01:39.582Z,44.18
2023-02-12T00:04:42.247Z,40.47
2023-02-12T00:05:42.236Z,42.70
2023-02-12T00:06:42.250Z,38.29
2023-02-12T00:07:42.209Z,42.43
2023-02-12T00:08:42.230Z,40.84
2023-02-12T00:09:42.186Z,37.64
2023-02-12T00:10:42.171Z,42.61
2023-02-12T00:11:42.169Z,39.53
2023-02-12T00:12:42.150Z,45.75
2023-02-12T00:13:42.160Z,37.79
2023-02-12T00:14:42.125Z,48.71
2023-02-12T00:15:42.139Z,39.29
2023-02-12T00:16:42.103Z,45.27
2023-02-12T00:17:42.100Z,47.15
2023-02-12T00:18:42.095Z,37.56
2023-02-12T00:19:42.079Z,38.07
2023-02-12T00:20:42.081Z,43.69
2023-02-12T00:21:42.051Z,48.08
2023-02-12T00:22:42.042Z,45.20
2023-02-12T00:23:42.074Z,44.04
2023-02-12T00:24:42.024Z,43.06
2023-02-12T00:25:42.016Z,48.20
2023-02-12T00:26:42.003Z,39.35
2023-02-12T00:27:41.993Z,43.57
2023-02-12T00:28:42.008Z,44.38
2023-02-12T00:29:41.970Z,44.39
2023-02-12T00:30:42.005Z,37.11
2023-02-12T00:31:42.003Z,42.33
2023-02-12T00:32:41.938Z,41.36
2023-02-12T00:33:42.097Z,47.42
2023-02-12T00:34:41.918Z,47.73
2023-02-12T00:35:41.913Z,49.31
2023-02-12T00:36:41.908Z,47.14
2023-02-12T00:37:41.897Z,42.68
2023-02-12T00:38:41.893Z,45.25
2023-02-12T00:39:41.867Z,42.34
2023-02-12T00:40:41.868Z,39.00
2023-02-12T00:41:41.856Z,45.55
2023-02-12T00:42:41.848Z,50.11
2023-02-12T00:43:41.863Z,47.22
2023-02-12T00:44:41.818Z,46.44
2023-02-12T00:45:41.808Z,37.11
2023-02-12T00:46:41.875Z,37.35
2023-02-12T00:47:41.787Z,47.35
2023-02-12T00:48:41.798Z,38.35
2023-02-12T00:49:41.775Z,41.65
2023-02-12T00:50:41.777Z,42.24
2023-02-12T00:51:41.744Z,46.32
2023-02-12T00:52:41.752Z,40.62
2023-02-12T00:53:41.754Z,37.68
2023-02-12T00:54:41.739Z,38.02
2023-02-12T00:55:41.700Z,44.02
2023-02-12T00:56:41.702Z,37.63
2023-02-12T00:57:41.686Z,46.28
2023-02-12T00:58:41.681Z,48.13
2023-02-12T00:59:41.704Z,38.68
2023-02-12T01:00:41.662Z,38.08
2023-02-12T01:01:41.695Z,42.45
2023-02-12T01:02:41.642Z,45.33
2023-02-12T01:03:41.648Z,43.73
2023-02-12T01:04:41.671Z,44.23
2023-02-12T01:05:41.646Z,38.40
2023-02-12T01:06:41.593Z,36.85
2023-02-12T01:07:41.578Z,36.93
2023-02-12T01:08:41.572Z,37.92
2023-02-12T01:09:41.574Z,38.07
2023-02-12T01:10:41.556Z,38.89
2023-02-12T01:11:42.707Z,37.54
2023-02-12T01:12:42.693Z,37.31
2023-02-12T01:13:42.705Z,44.09
2023-02-12T01:14:42.696Z,37.74
2023-02-12T01:15:42.730Z,40.30
2023-02-12T01:16:42.630Z,55.44
2023-02-12T01:17:43.512Z,45.54
2023-02-12T01:18:42.632Z,41.54
2023-02-12T01:19:42.629Z,37.00
2023-02-12T01:20:42.792Z,37.06
2023-02-12T01:21:42.834Z,42.17
2023-02-12T01:22:42.753Z,39.05
2023-02-12T01:23:42.751Z,42.47
2023-02-12T01:24:42.728Z,40.83
2023-02-12T01:25:42.605Z,46.52
2023-02-12T01:26:42.661Z,43.68
2023-02-12T01:27:42.648Z,38.29
2023-02-12T01:28:43.541Z,49.71
2023-02-12T01:29:42.505Z,46.27
2023-02-12T01:30:42.561Z,46.01
2023-02-12T01:31:42.781Z,37.74
2023-02-12T01:32:42.491Z,38.60
2023-02-12T01:33:42.471Z,38.21
2023-02-12T01:34:42.497Z,37.70
2023-02-12T01:35:42.460Z,38.23
2023-02-12T01:36:42.506Z,38.28
2023-02-12T01:37:42.461Z,37.27
2023-02-12T01:38:42.481Z,38.19
2023-02-12T01:39:42.442Z,38.82
2023-02-12T01:40:42.414Z,37.54
2023-02-12T01:41:42.428Z,37.16
2023-02-12T01:42:42.405Z,36.77
2023-02-12T01:43:42.434Z,37.25
2023-02-12T01:44:42.395Z,42.60
2023-02-12T01:45:42.340Z,38.33
2023-02-12T01:46:42.391Z,37.26
2023-02-12T01:47:42.439Z,37.15
2023-02-12T01:48:42.303Z,37.83
2023-02-12T01:49:42.312Z,40.33
2023-02-12T01:50:42.284Z,41.08
2023-02-12T01:51:42.287Z,39.24
2023-02-12T01:52:42.420Z,37.56
2023-02-12T01:53:42.259Z,38.19
2023-02-12T01:54:42.246Z,42.22
2023-02-12T01:55:42.228Z,39.12
2023-02-12T01:56:42.234Z,38.29
2023-02-12T01:57:42.239Z,38.98
2023-02-12T01:58:42.202Z,44.27
2023-02-12T01:59:42.185Z,46.10
2023-02-12T02:00:42.161Z,37.80
2023-02-12T02:01:42.264Z,38.75
2023-02-12T02:02:42.157Z,37.54
2023-02-12T02:03:42.134Z,37.78
2023-02-12T02:04:42.153Z,37.58
2023-02-12T02:05:42.122Z,38.03
2023-02-12T02:06:42.116Z,38.19
2023-02-12T02:07:42.109Z,37.44
2023-02-12T02:08:42.102Z,37.93
2023-02-12T02:09:42.096Z,37.94
2023-02-12T02:10:42.081Z,37.47
2023-02-12T02:11:42.077Z,37.03
2023-02-12T02:12:42.054Z,43.40
2023-02-12T02:13:42.048Z,40.08
2023-02-12T02:14:42.053Z,37.50
2023-02-12T02:15:42.066Z,42.29
2023-02-12T02:16:42.017Z,36.81
2023-02-12T02:17:42.022Z,37.12
2023-02-12T02:18:42.006Z,37.21
2023-02-12T02:19:42.005Z,37.73
2023-02-12T02:20:41.987Z,37.90
2023-02-12T02:21:41.966Z,37.55
2023-02-12T02:22:41.955Z,43.09
2023-02-12T02:23:41.946Z,38.57
2023-02-12T02:24:41.953Z,37.79
2023-02-12T02:25:41.923Z,40.52
2023-02-12T02:26:41.927Z,40.07
2023-02-12T02:27:41.911Z,40.47
2023-02-12T02:28:41.906Z,37.60
2023-02-12T02:29:41.902Z,37.29
2023-02-12T02:30:41.961Z,37.87
2023-02-12T02:31:41.943Z,42.33
2023-02-12T02:32:41.861Z,38.15
2023-02-12T02:33:41.845Z,37.88
2023-02-12T02:34:41.851Z,38.32
2023-02-12T02:35:41.837Z,37.66
2023-02-12T02:36:58.045Z,41.80
2023-02-12T02:37:43.862Z,42.66
2023-02-12T02:38:41.795Z,46.26
2023-02-12T02:39:41.801Z,44.31
2023-02-12T02:40:41.798Z,38.05
2023-02-12T02:41:41.765Z,37.71
2023-02-12T02:42:41.768Z,37.71
2023-02-12T02:43:41.744Z,38.95
2023-02-12T02:44:41.740Z,38.69
2023-02-12T02:45:41.739Z,38.67
2023-02-12T02:46:41.740Z,38.60
2023-02-12T02:47:41.806Z,40.16
2023-02-12T02:48:41.694Z,39.64
2023-02-12T02:49:41.688Z,41.64
2023-02-12T02:50:41.692Z,41.66
2023-02-12T02:51:41.667Z,38.90
2023-02-12T02:52:41.647Z,37.26
2023-02-12T02:53:41.654Z,39.66
2023-02-12T02:54:41.630Z,38.97
2023-02-12T02:55:41.639Z,38.11
2023-02-12T02:56:41.612Z,37.73
2023-02-12T02:57:41.606Z,37.52
2023-02-12T02:58:41.591Z,38.65
2023-02-12T02:59:41.580Z,37.74
2023-02-12T03:00:41.636Z,37.30
2023-02-12T03:01:41.564Z,37.67
2023-02-12T03:02:41.600Z,38.90
2023-02-12T03:03:42.556Z,37.62
2023-02-12T03:04:41.534Z,38.07
2023-02-12T03:05:41.539Z,38.44
2023-02-12T03:06:41.522Z,39.48
2023-02-12T03:07:41.526Z,45.00
2023-02-12T03:08:41.492Z,42.11
2023-02-12T03:09:41.489Z,36.91
2023-02-12T03:10:41.489Z,37.53
2023-02-12T03:11:41.477Z,47.63
2023-02-12T03:12:41.461Z,38.70
2023-02-12T03:13:41.445Z,38.69
2023-02-12T03:14:41.449Z,42.76
2023-02-12T03:15:41.450Z,37.31
2023-02-12T03:16:41.485Z,37.76
2023-02-12T03:17:41.431Z,38.62
2023-02-12T03:18:41.399Z,37.31
2023-02-12T03:19:41.394Z,37.33
2023-02-12T03:20:41.385Z,39.58
2023-02-12T03:21:41.370Z,40.11
2023-02-12T03:22:42.369Z,39.99
2023-02-12T03:23:41.361Z,38.00
2023-02-12T03:24:41.342Z,38.07
2023-02-12T03:25:41.351Z,38.42
2023-02-12T03:26:41.345Z,38.86
2023-02-12T03:27:41.299Z,39.43
2023-02-12T03:28:42.302Z,39.37
2023-02-12T03:29:41.289Z,38.59
2023-02-12T03:30:41.321Z,40.63
2023-02-12T03:31:41.319Z,41.35
2023-02-12T03:32:41.292Z,38.88
2023-02-12T03:33:41.262Z,39.48
2023-02-12T03:34:41.240Z,40.15
2023-02-12T03:35:41.242Z,39.74
2023-02-12T03:36:41.225Z,38.56
2023-02-12T03:37:41.213Z,37.94
2023-02-12T03:38:41.220Z,38.17
2023-02-12T03:39:41.200Z,39.23
2023-02-12T03:40:41.190Z,39.96
2023-02-12T03:41:41.181Z,40.06
2023-02-12T03:42:41.164Z,42.51
2023-02-12T03:43:41.161Z,40.16
2023-02-12T03:44:41.147Z,39.22
2023-02-12T03:45:41.206Z,38.37
2023-02-12T03:46:41.125Z,39.61
2023-02-12T03:47:41.260Z,39.79
2023-02-12T03:48:41.125Z,40.82
2023-02-12T03:49:41.094Z,39.49
2023-02-12T03:50:41.097Z,38.48
2023-02-12T03:51:41.081Z,39.41
2023-02-12T03:52:41.062Z,39.95
2023-02-12T03:53:41.061Z,40.32
2023-02-12T03:54:41.051Z,40.02
2023-02-12T03:55:41.047Z,38.91
2023-02-12T03:56:41.020Z,39.67
2023-02-12T03:57:41.018Z,38.89
2023-02-12T03:58:41.006Z,38.82
2023-02-12T03:59:40.999Z,38.97
2023-02-12T04:00:40.999Z,40.76
2023-02-12T04:01:41.114Z,41.65
2023-02-12T04:02:40.965Z,38.65
2023-02-12T04:03:40.953Z,38.74
2023-02-12T04:04:40.995Z,40.11
2023-02-12T04:05:40.941Z,39.37
2023-02-12T04:06:40.934Z,39.23
2023-02-12T04:07:40.913Z,40.70
2023-02-12T04:08:40.931Z,40.23
2023-02-12T04:09:40.892Z,39.26
2023-02-12T04:10:40.887Z,45.17
2023-02-12T04:11:40.876Z,39.07
2023-02-12T04:12:40.866Z,39.00
2023-02-12T04:13:40.851Z,40.39
2023-02-12T04:14:40.845Z,38.46
2023-02-12T04:15:40.844Z,38.45
2023-02-12T04:16:40.893Z,43.79
2023-02-12T04:17:40.810Z,38.76
2023-02-12T04:18:40.811Z,39.65
2023-02-12T04:19:40.811Z,37.50
2023-02-12T04:20:40.785Z,38.13
2023-02-12T04:21:40.789Z,45.52
2023-02-12T04:22:40.766Z,41.01
2023-02-12T04:23:40.762Z,38.02
2023-02-12T04:24:40.754Z,40.57
2023-02-12T04:25:40.746Z,38.86
2023-02-12T04:26:40.740Z,38.01
2023-02-12T04:27:40.726Z,39.78
2023-02-12T04:28:40.766Z,37.59
2023-02-12T04:29:40.698Z,41.00
2023-02-12T04:30:40.748Z,44.30
2023-02-12T04:31:40.799Z,43.32
2023-02-12T04:32:40.676Z,40.16
2023-02-12T04:33:40.653Z,39.03
2023-02-12T04:34:40.656Z,37.77
2023-02-12T04:35:40.646Z,38.68
2023-02-12T04:36:40.637Z,42.38
2023-02-12T04:37:40.625Z,39.53
2023-02-12T04:38:40.617Z,37.68
2023-02-12T04:39:40.602Z,38.25
2023-02-12T04:40:40.599Z,38.40
2023-02-12T04:41:40.610Z,38.51
2023-02-12T04:42:40.578Z,39.90
2023-02-12T04:43:40.564Z,39.90
2023-02-12T04:44:40.560Z,38.47
2023-02-12T04:45:40.616Z,39.10
2023-02-12T04:46:40.555Z,38.10
2023-02-12T04:47:40.539Z,38.48
2023-02-12T04:48:40.519Z,37.63
2023-02-12T04:49:40.515Z,38.21
2023-02-12T04:50:40.494Z,40.09
2023-02-12T04:51:40.516Z,38.71
2023-02-12T04:52:40.538Z,38.17
2023-02-12T04:53:40.478Z,38.32
2023-02-12T04:54:40.465Z,38.10
2023-02-12T04:55:40.455Z,37.61
2023-02-12T04:56:40.450Z,38.02
2023-02-12T04:57:40.450Z,38.94
2023-02-12T04:58:40.430Z,38.58
2023-02-12T04:59:40.421Z,37.63
2023-02-12T05:00:40.413Z,38.13
2023-02-12T05:01:40.510Z,38.14
2023-02-12T05:02:40.471Z,36.92
2023-02-12T05:03:40.378Z,37.47
2023-02-12T05:04:40.473Z,39.45
2023-02-12T05:05:40.378Z,38.12
2023-02-12T05:06:40.350Z,37.14
2023-02-12T05:07:40.351Z,43.93
2023-02-12T05:08:40.333Z,37.60
2023-02-12T05:09:40.331Z,38.21
2023-02-12T05:10:40.314Z,39.29
2023-02-12T05:11:40.308Z,39.21
2023-02-12T05:12:40.297Z,40.62
2023-02-12T05:13:40.281Z,41.10
2023-02-12T05:14:40.302Z,40.53
2023-02-12T05:15:40.307Z,40.17
2023-02-12T05:16:40.256Z,38.95
2023-02-12T05:17:40.258Z,38.20
2023-02-12T05:18:40.234Z,38.28
2023-02-12T05:19:40.217Z,39.13
2023-02-12T05:20:40.220Z,38.91
2023-02-12T05:21:40.200Z,38.08
2023-02-12T05:22:40.194Z,39.03
2023-02-12T05:23:40.181Z,39.85
2023-02-12T05:24:40.166Z,41.28
2023-02-12T05:25:40.163Z,38.64
2023-02-12T05:26:40.157Z,38.77
2023-02-12T05:27:40.159Z,38.37
2023-02-12T05:28:40.128Z,38.36
2023-02-12T05:29:40.127Z,38.15
2023-02-12T05:30:40.192Z,39.96
2023-02-12T05:31:40.198Z,39.25
2023-02-12T05:32:40.100Z,39.12
2023-02-12T05:33:40.088Z,39.11
2023-02-12T05:34:40.070Z,39.14
2023-02-12T05:35:40.066Z,40.14
2023-02-12T05:36:40.059Z,45.52
2023-02-12T05:37:40.060Z,38.51
2023-02-12T05:38:40.057Z,39.01
2023-02-12T05:39:40.013Z,39.86
2023-02-12T05:40:41.031Z,38.82
2023-02-12T05:41:40.010Z,39.30
2023-02-12T05:42:40.025Z,38.66
2023-02-12T05:43:39.984Z,38.03
2023-02-12T05:44:39.977Z,38.68
2023-02-12T05:45:39.971Z,38.90
2023-02-12T05:46:40.076Z,40.03
2023-02-12T05:47:39.955Z,41.23
2023-02-12T05:48:40.347Z,39.21
2023-02-12T05:49:40.068Z,40.73
2023-02-12T05:50:39.930Z,45.69
2023-02-12T05:51:39.932Z,39.12
2023-02-12T05:52:39.945Z,39.23
2023-02-12T05:53:39.909Z,38.81
2023-02-12T05:54:39.897Z,39.74
2023-02-12T05:55:39.888Z,39.17
2023-02-12T05:56:39.904Z,39.57
2023-02-12T05:57:39.896Z,41.10
2023-02-12T05:58:39.870Z,41.53
2023-02-12T05:59:39.857Z,39.90
2023-02-12T06:00:39.851Z,38.63
2023-02-12T06:01:39.843Z,38.41
2023-02-12T06:02:39.864Z,39.14
2023-02-12T06:03:39.854Z,38.59
2023-02-12T06:04:39.806Z,39.86
2023-02-12T06:05:39.832Z,40.17
2023-02-12T06:06:39.758Z,47.59
2023-02-12T06:07:39.777Z,44.38
2023-02-12T06:08:39.750Z,45.38
2023-02-12T06:09:39.776Z,42.92
2023-02-12T06:10:39.735Z,43.53
2023-02-12T06:11:39.720Z,41.42
2023-02-12T06:12:39.735Z,40.51
2023-02-12T06:13:39.789Z,40.12
2023-02-12T06:14:39.682Z,41.00
2023-02-12T06:15:39.683Z,40.85
2023-02-12T06:16:39.743Z,39.66
2023-02-12T06:17:39.663Z,39.46
2023-02-12T06:18:39.664Z,39.19
2023-02-12T06:19:39.651Z,39.10
2023-02-12T06:20:39.632Z,38.47
2023-02-12T06:21:39.618Z,38.80
2023-02-12T06:22:39.616Z,38.26
2023-02-12T06:23:39.621Z,39.59
2023-02-12T06:24:39.597Z,42.85
2023-02-12T06:25:39.582Z,44.16
2023-02-12T06:26:39.585Z,39.52
2023-02-12T06:27:39.563Z,39.32
2023-02-12T06:28:39.647Z,39.72
2023-02-12T06:29:39.546Z,39.99
2023-02-12T06:30:39.545Z,40.09
2023-02-12T06:31:39.661Z,45.26
2023-02-12T06:32:39.539Z,40.93
2023-02-12T06:33:39.522Z,40.81
2023-02-12T06:34:39.509Z,39.63
2023-02-12T06:35:39.493Z,39.77
2023-02-12T06:36:39.483Z,39.34
2023-02-12T06:37:39.473Z,39.30
2023-02-12T06:38:39.486Z,47.35
2023-02-12T06:39:39.452Z,44.36
2023-02-12T06:40:39.441Z,38.96
2023-02-12T06:41:39.429Z,39.27
2023-02-12T06:42:39.428Z,47.60
2023-02-12T06:43:39.445Z,37.92
2023-02-12T06:44:39.410Z,43.31
2023-02-12T06:45:39.406Z,41.44
2023-02-12T06:46:39.523Z,39.15
2023-02-12T06:47:39.384Z,43.99
2023-02-12T06:48:39.388Z,39.74
2023-02-12T06:49:39.356Z,39.33
2023-02-12T06:50:39.358Z,38.45
2023-02-12T06:51:39.351Z,38.70
2023-02-12T06:52:39.335Z,38.39
2023-02-12T06:53:39.330Z,39.16
2023-02-12T06:54:39.317Z,39.46
2023-02-12T06:55:39.302Z,43.95
2023-02-12T06:56:39.292Z,41.47
2023-02-12T06:57:39.291Z,43.45
2023-02-12T06:58:39.284Z,49.14
2023-02-12T06:59:39.260Z,46.80
2023-02-12T07:00:39.277Z,42.91
2023-02-12T07:01:39.243Z,43.84
2023-02-12T07:02:39.332Z,41.55
2023-02-12T07:03:39.270Z,40.65
2023-02-12T07:04:40.210Z,41.37
2023-02-12T07:05:39.204Z,40.90
2023-02-12T07:06:39.193Z,46.55
2023-02-12T07:07:39.185Z,41.79
2023-02-12T07:08:39.180Z,41.37
2023-02-12T07:09:39.157Z,43.24
2023-02-12T07:10:39.147Z,42.90
2023-02-12T07:11:39.140Z,43.03
2023-02-12T07:12:39.135Z,42.88
2023-02-12T07:13:39.146Z,44.53
2023-02-12T07:14:39.096Z,46.83
2023-02-12T07:15:40.123Z,44.39
2023-02-12T07:16:39.118Z,42.51
2023-02-12T07:17:39.079Z,43.08
2023-02-12T07:18:39.085Z,49.45
2023-02-12T07:19:39.079Z,43.31
2023-02-12T07:20:39.074Z,40.31
2023-02-12T07:21:39.052Z,41.55
2023-02-12T07:22:39.041Z,42.85
2023-02-12T07:23:39.026Z,46.37
2023-02-12T07:24:39.043Z,42.47
2023-02-12T07:25:39.016Z,47.35
2023-02-12T07:26:39.005Z,45.31
2023-02-12T07:27:38.998Z,45.11
2023-02-12T07:28:39.164Z,42.48
2023-02-12T07:29:39.006Z,45.83
2023-02-12T07:30:41.646Z,50.05
2023-02-12T07:31:38.983Z,40.76
2023-02-12T07:32:38.948Z,47.47
2023-02-12T07:33:38.931Z,43.48
2023-02-12T07:34:38.935Z,43.03
2023-02-12T07:35:38.921Z,47.24
2023-02-12T07:36:38.918Z,41.92
2023-02-12T07:37:38.897Z,47.14
2023-02-12T07:38:38.898Z,42.68
2023-02-12T07:39:38.892Z,40.46
2023-02-12T07:40:38.871Z,42.91
2023-02-12T07:41:38.856Z,50.62
2023-02-12T07:42:38.850Z,41.55
2023-02-12T07:43:38.878Z,42.46
2023-02-12T07:44:38.848Z,39.83
2023-02-12T07:45:38.891Z,39.02
2023-02-12T07:46:38.817Z,38.69
2023-02-12T07:47:38.797Z,38.74
2023-02-12T07:48:38.787Z,42.82
2023-02-12T07:49:38.795Z,44.66
2023-02-12T07:50:38.760Z,43.12
2023-02-12T07:51:38.758Z,39.28
2023-02-12T07:52:38.743Z,38.71
2023-02-12T07:53:38.751Z,39.85
2023-02-12T07:54:38.751Z,46.77
2023-02-12T07:55:38.727Z,38.65
2023-02-12T07:56:38.732Z,37.51
2023-02-12T07:57:38.725Z,37.79
2023-02-12T07:58:38.689Z,38.24
2023-02-12T07:59:38.694Z,39.29
2023-02-12T08:00:38.681Z,45.63
2023-02-12T08:01:38.709Z,49.07
2023-02-12T08:02:38.736Z,46.45
2023-02-12T08:03:38.680Z,42.03
2023-02-12T08:04:38.711Z,41.13
2023-02-12T08:05:38.641Z,45.41
2023-02-12T08:06:38.636Z,43.09
2023-02-12T08:07:38.601Z,38.01
2023-02-12T08:08:38.641Z,43.61
2023-02-12T08:09:38.599Z,41.78
2023-02-12T08:10:38.593Z,44.39
2023-02-12T08:11:38.565Z,45.06
2023-02-12T08:12:38.553Z,44.35
2023-02-12T08:13:38.552Z,39.52
2023-02-12T08:14:38.554Z,39.31
2023-02-12T08:15:38.521Z,38.06
2023-02-12T08:16:38.587Z,40.32
2023-02-12T08:17:38.498Z,48.81
2023-02-12T08:18:38.524Z,49.47
2023-02-12T08:19:38.510Z,46.84
2023-02-12T08:20:38.483Z,44.75
2023-02-12T08:21:38.483Z,38.56
2023-02-12T08:22:38.502Z,43.06
2023-02-12T08:23:38.453Z,44.39
2023-02-12T08:24:38.431Z,49.11
2023-02-12T08:25:39.433Z,50.96
2023-02-12T08:26:38.422Z,50.53
2023-02-12T08:27:38.416Z,43.47
2023-02-12T08:28:38.537Z,47.01
2023-02-12T08:29:38.397Z,45.25
2023-02-12T08:30:38.476Z,50.45
2023-02-12T08:31:38.427Z,48.74
2023-02-12T08:32:38.367Z,52.42
2023-02-12T08:33:39.007Z,48.40
2023-02-12T08:34:38.351Z,55.14
2023-02-12T08:35:38.335Z,50.37
2023-02-12T08:36:38.317Z,44.84
2023-02-12T08:37:38.320Z,43.27
2023-02-12T08:38:38.323Z,44.24
2023-02-12T08:39:38.311Z,49.62
2023-02-12T08:40:38.302Z,54.44
2023-02-12T08:41:38.285Z,50.92
2023-02-12T08:42:38.263Z,45.90
2023-02-12T08:43:39.964Z,42.42
2023-02-12T08:44:38.259Z,46.09
2023-02-12T08:45:38.238Z,53.82
2023-02-12T08:46:38.235Z,43.74
2023-02-12T08:47:38.221Z,44.92
2023-02-12T08:48:38.266Z,49.30
2023-02-12T08:49:38.213Z,42.99
2023-02-12T08:50:38.190Z,47.41
2023-02-12T08:51:38.177Z,42.00
2023-02-12T08:52:38.156Z,41.72
2023-02-12T08:53:38.153Z,42.20
2023-02-12T08:54:38.157Z,41.04
2023-02-12T08:55:38.134Z,45.27
2023-02-12T08:56:38.103Z,45.15
2023-02-12T08:57:39.123Z,41.96
2023-02-12T08:58:38.135Z,45.63
2023-02-12T08:59:38.103Z,42.67
2023-02-12T09:00:40.425Z,41.58
2023-02-12T09:01:39.262Z,39.72
2023-02-12T09:02:38.143Z,40.07
2023-02-12T09:03:38.053Z,39.90
2023-02-12T09:04:38.078Z,46.16
2023-02-12T09:05:38.066Z,43.95
2023-02-12T09:06:38.062Z,52.92
2023-02-12T09:07:38.101Z,48.24
2023-02-12T09:08:38.040Z,43.38
2023-02-12T09:09:38.052Z,42.73
2023-02-12T09:10:38.001Z,47.11
2023-02-12T09:11:38.000Z,48.28
2023-02-12T09:12:37.991Z,44.43
2023-02-12T09:13:37.975Z,43.42
2023-02-12T09:14:37.987Z,42.32
2023-02-12T09:15:37.964Z,42.29
2023-02-12T09:16:38.022Z,48.06
2023-02-12T09:17:37.962Z,42.78
2023-02-12T09:18:37.916Z,47.46
2023-02-12T09:19:37.910Z,45.91
2023-02-12T09:20:37.926Z,46.46
2023-02-12T09:21:37.907Z,41.48
2023-02-12T09:22:37.897Z,40.70
2023-02-12T09:23:37.905Z,41.50
2023-02-12T09:24:37.883Z,41.32
2023-02-12T09:25:37.886Z,48.75
2023-02-12T09:26:37.857Z,47.53
2023-02-12T09:27:37.843Z,45.83
2023-02-12T09:28:37.882Z,49.78
2023-02-12T09:29:37.839Z,51.67
2023-02-12T09:30:37.872Z,40.95
2023-02-12T09:31:37.962Z,40.81
2023-02-12T09:32:37.816Z,43.59
2023-02-12T09:33:37.814Z,53.23
2023-02-12T09:34:37.823Z,41.61
2023-02-12T09:35:37.792Z,40.76
2023-02-12T09:36:37.759Z,46.25
2023-02-12T09:37:37.764Z,40.73
2023-02-12T09:38:37.753Z,41.60
2023-02-12T09:39:37.731Z,43.43
2023-02-12T09:40:37.735Z,47.61
2023-02-12T09:41:37.743Z,46.12
2023-02-12T09:42:37.714Z,41.50
2023-02-12T09:43:37.705Z,45.52
2023-02-12T09:44:37.818Z,48.90
2023-02-12T09:45:38.709Z,47.18
2023-02-12T09:46:37.784Z,43.92
2023-02-12T09:47:37.702Z,50.93
2023-02-12T09:48:37.685Z,41.21
2023-02-12T09:49:37.657Z,47.17
2023-02-12T09:50:37.678Z,42.46
2023-02-12T09:51:37.659Z,47.08
2023-02-12T09:52:37.629Z,48.02
2023-02-12T09:53:37.645Z,47.23
2023-02-12T09:54:37.608Z,51.90
2023-02-12T09:55:37.601Z,48.27
2023-02-12T09:56:38.590Z,41.37
2023-02-12T09:57:37.591Z,47.20
2023-02-12T09:58:37.618Z,42.06
2023-02-12T09:59:37.561Z,41.84
2023-02-12T10:00:37.573Z,45.65
2023-02-12T10:01:37.626Z,47.80
2023-02-12T10:02:37.528Z,42.34
2023-02-12T10:03:37.530Z,42.09
2023-02-12T10:04:37.593Z,41.23
2023-02-12T10:05:37.534Z,51.33
2023-02-12T10:06:37.536Z,47.31
2023-02-12T10:07:37.522Z,50.86
2023-02-12T10:08:37.487Z,46.19
2023-02-12T10:09:37.487Z,50.09
2023-02-12T10:10:37.458Z,47.05
2023-02-12T10:11:37.433Z,46.58
2023-02-12T10:12:37.453Z,45.73
2023-02-12T10:13:37.452Z,43.11
2023-02-12T10:14:37.430Z,45.83
2023-02-12T10:15:37.448Z,50.94
2023-02-12T10:16:38.546Z,45.29
2023-02-12T10:17:38.370Z,48.55
2023-02-12T10:18:37.357Z,44.27
2023-02-12T10:19:37.356Z,52.26
2023-02-12T10:20:40.271Z,44.77
2023-02-12T10:21:37.340Z,44.88
2023-02-12T10:22:48.086Z,44.42
2023-02-12T10:23:38.378Z,42.03
2023-02-12T10:24:37.324Z,47.16
2023-02-12T10:25:37.323Z,44.64
2023-02-12T10:26:37.301Z,46.03
2023-02-12T10:27:37.302Z,48.46
2023-02-12T10:28:37.326Z,48.70
2023-02-12T10:29:37.284Z,49.10
2023-02-12T10:30:37.297Z,53.29
2023-02-12T10:31:37.479Z,45.36
2023-02-12T10:32:37.272Z,50.16
2023-02-12T10:33:38.798Z,50.34
2023-02-12T10:34:37.202Z,44.25
2023-02-12T10:35:37.260Z,46.70
2023-02-12T10:36:37.203Z,46.25
2023-02-12T10:37:37.370Z,49.34
2023-02-12T10:38:37.202Z,45.92
2023-02-12T10:39:37.182Z,48.02
2023-02-12T10:40:37.182Z,41.68
2023-02-12T10:41:37.170Z,51.63
2023-02-12T10:42:37.146Z,52.32
2023-02-12T10:43:37.143Z,53.66
2023-02-12T10:44:37.127Z,47.68
2023-02-12T10:45:37.176Z,48.06
2023-02-12T10:46:37.170Z,47.25
2023-02-12T10:47:37.191Z,45.84
2023-02-12T10:48:37.081Z,49.82
2023-02-12T10:49:37.073Z,45.91
2023-02-12T10:50:37.065Z,44.90
2023-02-12T10:51:37.054Z,44.03
2023-02-12T10:52:37.030Z,50.57
2023-02-12T10:53:37.008Z,49.35
2023-02-12T10:54:37.000Z,46.73
2023-02-12T10:55:37.040Z,50.32
2023-02-12T10:56:37.000Z,42.68
2023-02-12T10:57:36.985Z,48.65
2023-02-12T10:58:36.990Z,46.75
2023-02-12T10:59:36.969Z,48.61
2023-02-12T11:00:36.961Z,50.86
2023-02-12T11:01:37.223Z,51.27
2023-02-12T11:02:36.936Z,52.84
2023-02-12T11:03:36.926Z,52.46
2023-02-12T11:04:36.972Z,53.17
2023-02-12T11:05:36.921Z,51.27
2023-02-12T11:06:36.880Z,40.64
2023-02-12T11:07:36.929Z,46.52
2023-02-12T11:08:36.880Z,48.89
2023-02-12T11:09:36.929Z,41.28
2023-02-12T11:10:36.889Z,51.90
2023-02-12T11:11:36.886Z,49.02
2023-02-12T11:12:36.843Z,44.08
2023-02-12T11:13:36.875Z,43.87
2023-02-12T11:14:36.835Z,42.82
2023-02-12T11:15:36.832Z,47.68
2023-02-12T11:16:36.842Z,49.12
2023-02-12T11:17:36.799Z,47.09
2023-02-12T11:18:36.778Z,47.95
2023-02-12T11:19:36.788Z,48.03
2023-02-12T11:20:36.777Z,53.27
2023-02-12T11:21:36.803Z,44.64
2023-02-12T11:22:36.769Z,43.88
2023-02-12T11:23:36.774Z,44.37
2023-02-12T11:24:36.763Z,50.45
2023-02-12T11:25:36.737Z,50.23
2023-02-12T11:26:36.755Z,45.77
2023-02-12T11:27:36.730Z,45.92
2023-02-12T11:28:36.853Z,43.85
2023-02-12T11:29:36.687Z,42.80
2023-02-12T11:30:36.689Z,43.46
2023-02-12T11:31:36.777Z,39.25
2023-02-12T11:32:36.673Z,38.63
2023-02-12T11:33:36.673Z,48.97
2023-02-12T11:34:36.599Z,42.05
2023-02-12T11:35:36.654Z,37.70
2023-02-12T11:36:36.613Z,39.53
2023-02-12T11:37:36.601Z,55.87
2023-02-12T11:38:36.566Z,48.51
2023-02-12T11:39:36.579Z,52.56
2023-02-12T11:40:36.544Z,45.03
2023-02-12T11:41:36.529Z,43.76
2023-02-12T11:42:36.504Z,48.48
2023-02-12T11:43:36.498Z,46.22
2023-02-12T11:44:36.483Z,50.99
2023-02-12T11:45:36.484Z,46.92
2023-02-12T11:46:36.582Z,47.23
2023-02-12T11:47:36.440Z,47.12
2023-02-12T11:48:36.439Z,45.92
2023-02-12T11:49:36.432Z,46.28
2023-02-12T11:50:36.430Z,43.42
2023-02-12T11:51:37.125Z,48.11
2023-02-12T11:52:36.455Z,44.08
2023-02-12T11:53:36.407Z,52.11
2023-02-12T11:54:36.401Z,62.93
2023-02-12T11:55:36.412Z,62.31
2023-02-12T11:56:36.413Z,61.80
2023-02-12T11:57:36.394Z,50.59
2023-02-12T11:58:36.353Z,47.93
2023-02-12T11:59:36.414Z,53.19
2023-02-12T12:00:36.332Z,57.43
2023-02-12T12:01:36.381Z,56.83
2023-02-12T12:02:36.385Z,57.19
2023-02-12T12:03:36.370Z,57.26
2023-02-12T12:04:36.356Z,60.35
2023-02-12T12:05:36.345Z,57.57
2023-02-12T12:06:36.348Z,57.64
2023-02-12T12:07:36.309Z,56.86
2023-02-12T12:08:36.295Z,52.03
2023-02-12T12:09:36.269Z,50.46
2023-02-12T12:10:36.254Z,50.64
2023-02-12T12:11:36.285Z,59.31
2023-02-12T12:12:36.246Z,58.33
2023-02-12T12:13:36.217Z,47.13
2023-02-12T12:14:36.259Z,39.73
2023-02-12T12:15:36.224Z,40.10
2023-02-12T12:16:36.282Z,53.05
2023-02-12T12:17:36.210Z,59.15
2023-02-12T12:18:36.188Z,60.13
2023-02-12T12:19:36.226Z,47.51
2023-02-12T12:20:36.197Z,48.61
2023-02-12T12:21:36.166Z,48.64
2023-02-12T12:22:36.154Z,47.81
2023-02-12T12:23:36.136Z,57.77
2023-02-12T12:24:36.126Z,59.96
2023-02-12T12:25:36.159Z,52.07
2023-02-12T12:26:36.096Z,53.56
2023-02-12T12:27:36.119Z,48.39
2023-02-12T12:28:36.142Z,49.44
2023-02-12T12:29:36.076Z,54.39
2023-02-12T12:30:36.094Z,58.12
2023-02-12T12:31:36.125Z,59.79
2023-02-12T12:32:36.079Z,52.35
2023-02-12T12:33:36.017Z,47.01
2023-02-12T12:34:36.029Z,61.94
2023-02-12T12:35:36.025Z,61.04
2023-02-12T12:36:36.005Z,67.67
2023-02-12T12:37:35.989Z,56.97
2023-02-12T12:38:35.978Z,46.12
2023-02-12T12:39:35.944Z,45.45
2023-02-12T12:40:35.951Z,48.64
2023-02-12T12:41:35.967Z,46.14
2023-02-12T12:42:35.942Z,45.52
2023-02-12T12:43:35.961Z,47.18
2023-02-12T12:44:35.974Z,44.09
2023-02-12T12:45:35.921Z,48.08
2023-02-12T12:46:35.893Z,42.65
2023-02-12T12:47:35.903Z,45.38
2023-02-12T12:48:35.895Z,40.86
2023-02-12T12:49:35.869Z,49.15
2023-02-12T12:50:35.862Z,41.01
2023-02-12T12:51:35.835Z,47.02
2023-02-12T12:52:35.855Z,49.20
2023-02-12T12:53:35.829Z,43.67
2023-02-12T12:54:35.780Z,48.13